Msm Dolores — 5BQF3 — position and weather

sailwx.info

Track history (hours):
 
Tides and Currents Weather Stations Pressure Air Temp Water Temp Dewpoint Dewpoint Depression Visibility Wind Speed Wind Dir Waves Ship Positions

Msm Dolores

Last reported at 2018-Jun-13 01:45 UTC. Time now 2018-Jun-21 14:26 UTC.
Position N 27°37' W 015°12'.
Warning: this ship's position is 8 days out of date.

Length 110 m; draft 6.1 m.

Type: Ship (hazmat cat A). MMSI: 210047000.

Date/timePositionNaut miles runAvg speedWind from/ knotsBaromVisibWave heightAir tempDewpointWater temp
2018-Jun-13 01:45N 27°37' W 015°12'3 9.5
2018-Jun-13 01:28N 27°40' W 015°11'5 9.1
2018-Jun-13 00:54N 27°44' W 015°09'4 9.3
2018-Jun-13 00:30N 27°48' W 015°07'5 9.4
2018-Jun-13 00:00N 27°52' W 015°05'5 9.4
2018-Jun-12 23:29N 27°57' W 015°04'4 9.5
2018-Jun-12 23:00N 28°01' W 015°02'5 9.4
2018-Jun-12 22:30N 28°06' W 015°01'5 9.2
2018-Jun-12 22:00N 28°10' W 014°59'5 9.0
2018-Jun-12 21:30N 28°14' W 014°57'4 9.0
2018-Jun-12 21:01N 28°19' W 014°56'5 9.3
2018-Jun-12 20:30N 28°23' W 014°54'5 9.3
2018-Jun-12 20:00N 28°27' W 014°52'5 9.1
2018-Jun-12 19:30N 28°31' W 014°50'5 8.9
2018-Jun-12 18:59N 28°36' W 014°47'4 8.7
2018-Jun-12 18:29N 28°40' W 014°45'56 8.7
2018-Jun-12 12:05N 29°30' W 014°19'  
2018-Jun-10 00:47N 37°58' W 009°39'3 9.3
2018-Jun-10 00:30N 38°00' W 009°38'5 9.2
2018-Jun-10 00:01N 38°05' W 009°36'5 9.2
2018-Jun-09 23:30N 38°09' W 009°34'4 9.1
2018-Jun-09 23:00N 38°13' W 009°33'5 9.2
2018-Jun-09 22:30N 38°18' W 009°31'5 9.2
2018-Jun-09 22:00N 38°22' W 009°30'5 9.0
2018-Jun-09 21:30N 38°27' W 009°28'5 9.0
2018-Jun-09 21:00N 38°31' W 009°26'5 9.4
2018-Jun-09 20:31N 38°35' W 009°24'4 8.3
2018-Jun-09 20:00N 38°38' W 009°21'4 7.7
2018-Jun-09 19:27N 38°41' W 009°16'4 8.1
2018-Jun-09 19:00N 38°41' W 009°12'4 8.2
2018-Jun-09 18:31N 38°43' W 009°07'1 1.1
2018-Jun-09 17:56N 38°43' W 009°07'0 0.0
2018-Jun-09 16:26N 38°43' W 009°07'0 0.0
2018-Jun-09 15:53N 38°43' W 009°07'0 0.0
2018-Jun-09 14:38N 38°43' W 009°07'0 0.0
2018-Jun-09 14:23N 38°43' W 009°07'0 0.0
2018-Jun-09 13:59N 38°43' W 009°07'0 0.0
2018-Jun-09 13:14N 38°43' W 009°07'0 0.0
2018-Jun-09 12:56N 38°43' W 009°07'0 0.0
2018-Jun-09 12:26N 38°43' W 009°07'0 0.0
2018-Jun-09 11:44N 38°43' W 009°07'0 0.0
2018-Jun-09 11:29N 38°43' W 009°07'0 0.0
2018-Jun-09 10:56N 38°43' W 009°07'0 0.0
2018-Jun-09 10:26N 38°43' W 009°07'0 0.0
2018-Jun-09 09:59N 38°43' W 009°07'0 0.0
2018-Jun-09 09:29N 38°43' W 009°07'0 0.0
2018-Jun-09 08:59N 38°43' W 009°07'0 0.0
2018-Jun-09 08:29N 38°43' W 009°07'0 0.0
2018-Jun-09 07:56N 38°43' W 009°07'0 0.0
2018-Jun-09 07:29N 38°43' W 009°07'0 0.0
2018-Jun-09 06:59N 38°43' W 009°07'0 0.0
2018-Jun-09 06:29N 38°43' W 009°07'0 0.0
2018-Jun-09 05:59N 38°43' W 009°07'0 0.0
2018-Jun-09 05:29N 38°43' W 009°07'0 0.0
2018-Jun-09 04:59N 38°43' W 009°07'0 0.0
2018-Jun-09 04:29N 38°43' W 009°07'0 0.0
2018-Jun-09 03:59N 38°43' W 009°07'0 0.0
2018-Jun-09 03:29N 38°43' W 009°07'0 0.0
2018-Jun-09 02:59N 38°43' W 009°07'0 0.0
2018-Jun-09 02:29N 38°43' W 009°07'0 0.0
2018-Jun-09 01:59N 38°43' W 009°07'0 0.0
2018-Jun-09 01:20N 38°43' W 009°07'0 0.0
2018-Jun-09 00:47N 38°43' W 009°07'0 0.0
2018-Jun-09 00:26N 38°43' W 009°07'0 0.0
2018-Jun-08 23:59N 38°43' W 009°07'0 0.0
2018-Jun-08 23:29N 38°43' W 009°07'0 0.0
2018-Jun-08 22:53N 38°43' W 009°07'0 0.0
2018-Jun-08 22:29N 38°43' W 009°07'0 0.0
2018-Jun-08 21:56N 38°43' W 009°07'0 0.0
2018-Jun-08 21:29N 38°43' W 009°07'0 0.0
2018-Jun-08 20:53N 38°43' W 009°07'0 0.0
2018-Jun-08 20:29N 38°43' W 009°07'0 0.0
2018-Jun-08 19:47N 38°43' W 009°07'0 0.1
2018-Jun-08 19:30N 38°43' W 009°07'1 2.4
2018-Jun-08 19:00N 38°42' W 009°07'5 9.0
2018-Jun-08 18:30N 38°41' W 009°13'5 9.8
2018-Jun-08 17:57N 38°39' W 009°20'4 9.3
2018-Jun-08 17:30N 38°37' W 009°23'510.1
2018-Jun-08 17:00N 38°36' W 009°30'510.6
2018-Jun-08 16:30N 38°36' W 009°37'510.7
2018-Jun-08 16:00N 38°35' W 009°43'510.5
2018-Jun-08 15:30N 38°35' W 009°50'510.2
2018-Jun-08 15:00N 38°35' W 009°57'6 8.3
2018-Jun-08 14:19N 38°37' W 010°03'410.2
2018-Jun-08 13:54N 38°42' W 010°05'410.2
2018-Jun-08 13:29N 38°46' W 010°05'510.3
2018-Jun-08 13:00N 38°51' W 010°05'5 9.9
2018-Jun-08 12:30N 38°56' W 010°03'5 9.9
2018-Jun-08 12:00N 39°00' W 010°01'5 9.5
2018-Jun-08 11:29N 39°05' W 009°59'5 9.5
2018-Jun-08 11:00N 39°09' W 009°57'5 9.6
2018-Jun-08 10:30N 39°14' W 009°55'5 9.4
2018-Jun-08 10:00N 39°18' W 009°52'4 8.2
2018-Jun-08 09:29N 39°21' W 009°48'111 9.5
2018-Jun-07 21:47N 41°03' W 008°49'3 9.9
2018-Jun-07 21:30N 41°05' W 008°47'5 9.7
2018-Jun-07 21:00N 41°09' W 008°44'2 4.6
2018-Jun-07 20:28N 41°11' W 008°42'0 0.5
2018-Jun-07 19:58N 41°11' W 008°42'0 0.0
2018-Jun-07 19:28N 41°11' W 008°42'0 0.0
2018-Jun-07 18:55N 41°11' W 008°42'0 0.0
2018-Jun-07 18:28N 41°11' W 008°42'0 0.0
2018-Jun-07 17:58N 41°11' W 008°42'0 0.0
2018-Jun-07 17:28N 41°11' W 008°42'0 0.0
2018-Jun-07 16:58N 41°11' W 008°42'0 0.0
2018-Jun-07 16:28N 41°11' W 008°42'0 0.0
2018-Jun-07 15:58N 41°11' W 008°42'0 0.0
2018-Jun-07 15:28N 41°11' W 008°42'0 0.0
2018-Jun-07 14:58N 41°11' W 008°42'0 0.0
2018-Jun-07 14:28N 41°11' W 008°42'0 0.0
2018-Jun-07 13:58N 41°11' W 008°42'0 0.0
2018-Jun-07 13:28N 41°11' W 008°42'0 0.0
2018-Jun-07 12:58N 41°11' W 008°42'0 0.0
2018-Jun-07 12:28N 41°11' W 008°42'0 0.0
2018-Jun-07 11:58N 41°11' W 008°42'0 0.0
2018-Jun-07 11:28N 41°11' W 008°42'0 0.0
2018-Jun-07 10:58N 41°11' W 008°42'0 0.0
2018-Jun-07 10:28N 41°11' W 008°42'0 0.0
2018-Jun-07 09:58N 41°11' W 008°42'0 0.0
2018-Jun-07 09:28N 41°11' W 008°42'0 0.0
2018-Jun-07 08:58N 41°11' W 008°42'0 0.0
2018-Jun-07 08:28N 41°11' W 008°42'0 0.0
2018-Jun-07 07:58N 41°11' W 008°42'0 0.0
2018-Jun-07 07:28N 41°11' W 008°42'0 0.0
2018-Jun-07 06:58N 41°11' W 008°42'0 0.0
2018-Jun-07 06:28N 41°11' W 008°42'0 0.0
2018-Jun-07 05:58N 41°11' W 008°42'0 0.0
2018-Jun-07 05:28N 41°11' W 008°42'0 0.0
2018-Jun-07 04:58N 41°11' W 008°42'0 0.0
2018-Jun-07 04:28N 41°11' W 008°42'0 0.0
2018-Jun-07 03:58N 41°11' W 008°42'0 0.0
2018-Jun-07 03:28N 41°11' W 008°42'0 0.0
2018-Jun-07 02:58N 41°11' W 008°42'0 0.0
2018-Jun-07 02:25N 41°11' W 008°42'0 0.0
2018-Jun-07 01:58N 41°11' W 008°42'0 0.0
2018-Jun-07 01:28N 41°11' W 008°42'0 0.0
2018-Jun-07 00:58N 41°11' W 008°42'0 0.0
2018-Jun-07 00:28N 41°11' W 008°42'0 0.0
2018-Jun-06 23:58N 41°11' W 008°42'0 0.0
2018-Jun-06 23:28N 41°11' W 008°42'0 0.0
2018-Jun-06 22:58N 41°11' W 008°42'0 0.0
2018-Jun-06 22:28N 41°11' W 008°42'0 0.0
2018-Jun-06 21:58N 41°11' W 008°42'0 0.0
2018-Jun-06 21:28N 41°11' W 008°42'0 0.0
2018-Jun-06 20:58N 41°11' W 008°42'0 0.0
2018-Jun-06 20:28N 41°11' W 008°42'0 0.0
2018-Jun-06 19:55N 41°11' W 008°42'0 0.0
2018-Jun-06 19:28N 41°11' W 008°42'0 0.0
2018-Jun-06 18:58N 41°11' W 008°42'0 0.0
2018-Jun-06 18:28N 41°11' W 008°42'0 0.0
2018-Jun-06 17:58N 41°11' W 008°42'0 0.0
2018-Jun-06 17:28N 41°11' W 008°42'0 0.0
2018-Jun-06 16:58N 41°11' W 008°42'0 0.0
2018-Jun-06 16:28N 41°11' W 008°42'0 0.0
2018-Jun-06 15:58N 41°11' W 008°42'0 0.0
2018-Jun-06 15:28N 41°11' W 008°42'0 0.0
2018-Jun-06 14:58N 41°11' W 008°42'0 0.0
2018-Jun-06 14:28N 41°11' W 008°42'0 0.0
2018-Jun-06 13:58N 41°11' W 008°42'0 0.0
2018-Jun-06 13:28N 41°11' W 008°42'0 0.0
2018-Jun-06 12:58N 41°11' W 008°42'0 0.0
2018-Jun-06 12:28N 41°11' W 008°42'0 0.0
2018-Jun-06 11:58N 41°11' W 008°42'0 0.0
2018-Jun-06 11:28N 41°11' W 008°42'0 0.0
2018-Jun-06 10:58N 41°11' W 008°42'0 0.0
2018-Jun-06 10:28N 41°11' W 008°42'0 0.0
2018-Jun-06 09:58N 41°11' W 008°42'0 0.0
2018-Jun-06 09:28N 41°11' W 008°42'0 0.0
2018-Jun-06 08:55N 41°11' W 008°42'0 0.0
2018-Jun-06 08:28N 41°11' W 008°42'0 0.0
2018-Jun-06 07:58N 41°11' W 008°42'0 0.0
2018-Jun-06 07:28N 41°11' W 008°42'0 0.0
2018-Jun-06 06:58N 41°11' W 008°42'0 0.0
2018-Jun-06 06:28N 41°11' W 008°42'0 0.0
2018-Jun-06 06:00N 41°11' W 008°42'0 0.3
2018-Jun-06 05:30N 41°11' W 008°42'2 4.8
2018-Jun-06 05:01N 41°09' W 008°44'3 5.2
2018-Jun-06 04:29N 41°10' W 008°47'0 0.1
2018-Jun-06 03:59N 41°10' W 008°47'0 0.0
2018-Jun-06 03:20N 41°10' W 008°47'0 0.1
2018-Jun-06 02:59N 41°10' W 008°47'1 2.1
2018-Jun-06 02:30N 41°11' W 008°47'467 9.1
2018-Jun-03 22:58N 48°43' W 005°57'2010.6
2018-Jun-03 21:07N 48°57' W 005°38'110.4
2018-Jun-03 21:00N 48°58' W 005°36'8110.5
2018-Jun-03 13:17N 49°42' W 003°51'311.3
2018-Jun-03 13:00N 49°43' W 003°47'611.1
2018-Jun-03 12:30N 49°46' W 003°39'610.9
2018-Jun-03 11:58N 49°49' W 003°31'510.5
2018-Jun-03 11:30N 49°51' W 003°25'510.2
2018-Jun-03 11:00N 49°53' W 003°17'5 9.9
2018-Jun-03 10:30N 49°55' W 003°10'5 9.6
2018-Jun-03 10:00N 49°57' W 003°04'5 9.6
2018-Jun-03 09:30N 49°59' W 002°57'5 9.7
2018-Jun-03 09:00N 50°00' W 002°50'5 9.8
2018-Jun-03 08:30N 50°02' W 002°42'510.2
2018-Jun-03 08:00N 50°03' W 002°35'610.7
2018-Jun-03 07:27N 50°05' W 002°26'611.3
2018-Jun-03 06:57N 50°07' W 002°18'612.0
2018-Jun-03 06:28N 50°08' W 002°09'612.7
2018-Jun-03 06:00N 50°10' W 002°00'713.3
2018-Jun-03 05:30N 50°12' W 001°50'713.7
2018-Jun-03 05:01N 50°13' W 001°40'713.7
2018-Jun-03 04:30N 50°15' W 001°29'713.6
2018-Jun-03 04:00N 50°16' W 001°19'713.4
2018-Jun-03 03:30N 50°18' W 001°09'613.0
2018-Jun-03 03:00N 50°19' W 000°59'611.9
2018-Jun-03 02:30N 50°21' W 000°50'511.0
2018-Jun-03 02:00N 50°24' W 000°42'  
Track history (hours):
 
Tides and Currents Weather Stations Pressure Air Temp Water Temp Dewpoint Dewpoint Depression Visibility Wind Speed Wind Dir Waves Ship Positions

Msm Dolores

Last reported at 2018-Jun-13 01:45 UTC. Time now 2018-Jun-21 14:26 UTC.
Position N 27°37' W 015°12'.
Warning: this ship's position is 8 days out of date.

Length 110 m; draft 6.1 m.

Type: Ship (hazmat cat A). MMSI: 210047000.

Date/timePositionNaut miles runAvg speedWind from/ knotsBaromVisibWave heightAir tempDewpointWater temp
2018-Jun-13 01:45N 27°37' W 015°12'3 9.5
2018-Jun-13 01:28N 27°40' W 015°11'5 9.1
2018-Jun-13 00:54N 27°44' W 015°09'4 9.3
2018-Jun-13 00:30N 27°48' W 015°07'5 9.4
2018-Jun-13 00:00N 27°52' W 015°05'5 9.4
2018-Jun-12 23:29N 27°57' W 015°04'4 9.5
2018-Jun-12 23:00N 28°01' W 015°02'5 9.4
2018-Jun-12 22:30N 28°06' W 015°01'5 9.2
2018-Jun-12 22:00N 28°10' W 014°59'5 9.0
2018-Jun-12 21:30N 28°14' W 014°57'4 9.0
2018-Jun-12 21:01N 28°19' W 014°56'5 9.3
2018-Jun-12 20:30N 28°23' W 014°54'5 9.3
2018-Jun-12 20:00N 28°27' W 014°52'5 9.1
2018-Jun-12 19:30N 28°31' W 014°50'5 8.9
2018-Jun-12 18:59N 28°36' W 014°47'4 8.7
2018-Jun-12 18:29N 28°40' W 014°45'56 8.7
2018-Jun-12 12:05N 29°30' W 014°19'  
2018-Jun-10 00:47N 37°58' W 009°39'3 9.3
2018-Jun-10 00:30N 38°00' W 009°38'5 9.2
2018-Jun-10 00:01N 38°05' W 009°36'5 9.2
2018-Jun-09 23:30N 38°09' W 009°34'4 9.1
2018-Jun-09 23:00N 38°13' W 009°33'5 9.2
2018-Jun-09 22:30N 38°18' W 009°31'5 9.2
2018-Jun-09 22:00N 38°22' W 009°30'5 9.0
2018-Jun-09 21:30N 38°27' W 009°28'5 9.0
2018-Jun-09 21:00N 38°31' W 009°26'5 9.4
2018-Jun-09 20:31N 38°35' W 009°24'4 8.3
2018-Jun-09 20:00N 38°38' W 009°21'4 7.7
2018-Jun-09 19:27N 38°41' W 009°16'4 8.1
2018-Jun-09 19:00N 38°41' W 009°12'4 8.2
2018-Jun-09 18:31N 38°43' W 009°07'1 1.1
2018-Jun-09 17:56N 38°43' W 009°07'0 0.0
2018-Jun-09 16:26N 38°43' W 009°07'0 0.0
2018-Jun-09 15:53N 38°43' W 009°07'0 0.0
2018-Jun-09 14:38N 38°43' W 009°07'0 0.0
2018-Jun-09 14:23N 38°43' W 009°07'0 0.0
2018-Jun-09 13:59N 38°43' W 009°07'0 0.0
2018-Jun-09 13:14N 38°43' W 009°07'0 0.0
2018-Jun-09 12:56N 38°43' W 009°07'0 0.0
2018-Jun-09 12:26N 38°43' W 009°07'0 0.0
2018-Jun-09 11:44N 38°43' W 009°07'0 0.0
2018-Jun-09 11:29N 38°43' W 009°07'0 0.0
2018-Jun-09 10:56N 38°43' W 009°07'0 0.0
2018-Jun-09 10:26N 38°43' W 009°07'0 0.0
2018-Jun-09 09:59N 38°43' W 009°07'0 0.0
2018-Jun-09 09:29N 38°43' W 009°07'0 0.0
2018-Jun-09 08:59N 38°43' W 009°07'0 0.0
2018-Jun-09 08:29N 38°43' W 009°07'0 0.0
2018-Jun-09 07:56N 38°43' W 009°07'0 0.0
2018-Jun-09 07:29N 38°43' W 009°07'0 0.0
2018-Jun-09 06:59N 38°43' W 009°07'0 0.0
2018-Jun-09 06:29N 38°43' W 009°07'0 0.0
2018-Jun-09 05:59N 38°43' W 009°07'0 0.0
2018-Jun-09 05:29N 38°43' W 009°07'0 0.0
2018-Jun-09 04:59N 38°43' W 009°07'0 0.0
2018-Jun-09 04:29N 38°43' W 009°07'0 0.0
2018-Jun-09 03:59N 38°43' W 009°07'0 0.0
2018-Jun-09 03:29N 38°43' W 009°07'0 0.0
2018-Jun-09 02:59N 38°43' W 009°07'0 0.0
2018-Jun-09 02:29N 38°43' W 009°07'0 0.0
2018-Jun-09 01:59N 38°43' W 009°07'0 0.0
2018-Jun-09 01:20N 38°43' W 009°07'0 0.0
2018-Jun-09 00:47N 38°43' W 009°07'0 0.0
2018-Jun-09 00:26N 38°43' W 009°07'0 0.0
2018-Jun-08 23:59N 38°43' W 009°07'0 0.0
2018-Jun-08 23:29N 38°43' W 009°07'0 0.0
2018-Jun-08 22:53N 38°43' W 009°07'0 0.0
2018-Jun-08 22:29N 38°43' W 009°07'0 0.0
2018-Jun-08 21:56N 38°43' W 009°07'0 0.0
2018-Jun-08 21:29N 38°43' W 009°07'0 0.0
2018-Jun-08 20:53N 38°43' W 009°07'0 0.0
2018-Jun-08 20:29N 38°43' W 009°07'0 0.0
2018-Jun-08 19:47N 38°43' W 009°07'0 0.1
2018-Jun-08 19:30N 38°43' W 009°07'1 2.4
2018-Jun-08 19:00N 38°42' W 009°07'5 9.0
2018-Jun-08 18:30N 38°41' W 009°13'5 9.8
2018-Jun-08 17:57N 38°39' W 009°20'4 9.3
2018-Jun-08 17:30N 38°37' W 009°23'510.1
2018-Jun-08 17:00N 38°36' W 009°30'510.6
2018-Jun-08 16:30N 38°36' W 009°37'510.7
2018-Jun-08 16:00N 38°35' W 009°43'510.5
2018-Jun-08 15:30N 38°35' W 009°50'510.2
2018-Jun-08 15:00N 38°35' W 009°57'6 8.3
2018-Jun-08 14:19N 38°37' W 010°03'410.2
2018-Jun-08 13:54N 38°42' W 010°05'410.2
2018-Jun-08 13:29N 38°46' W 010°05'510.3
2018-Jun-08 13:00N 38°51' W 010°05'5 9.9
2018-Jun-08 12:30N 38°56' W 010°03'5 9.9
2018-Jun-08 12:00N 39°00' W 010°01'5 9.5
2018-Jun-08 11:29N 39°05' W 009°59'5 9.5
2018-Jun-08 11:00N 39°09' W 009°57'5 9.6
2018-Jun-08 10:30N 39°14' W 009°55'5 9.4
2018-Jun-08 10:00N 39°18' W 009°52'4 8.2
2018-Jun-08 09:29N 39°21' W 009°48'111 9.5
2018-Jun-07 21:47N 41°03' W 008°49'3 9.9
2018-Jun-07 21:30N 41°05' W 008°47'5 9.7
2018-Jun-07 21:00N 41°09' W 008°44'2 4.6
2018-Jun-07 20:28N 41°11' W 008°42'0 0.5
2018-Jun-07 19:58N 41°11' W 008°42'0 0.0
2018-Jun-07 19:28N 41°11' W 008°42'0 0.0
2018-Jun-07 18:55N 41°11' W 008°42'0 0.0
2018-Jun-07 18:28N 41°11' W 008°42'0 0.0
2018-Jun-07 17:58N 41°11' W 008°42'0 0.0
2018-Jun-07 17:28N 41°11' W 008°42'0 0.0
2018-Jun-07 16:58N 41°11' W 008°42'0 0.0
2018-Jun-07 16:28N 41°11' W 008°42'0 0.0
2018-Jun-07 15:58N 41°11' W 008°42'0 0.0
2018-Jun-07 15:28N 41°11' W 008°42'0 0.0
2018-Jun-07 14:58N 41°11' W 008°42'0 0.0
2018-Jun-07 14:28N 41°11' W 008°42'0 0.0
2018-Jun-07 13:58N 41°11' W 008°42'0 0.0
2018-Jun-07 13:28N 41°11' W 008°42'0 0.0
2018-Jun-07 12:58N 41°11' W 008°42'0 0.0
2018-Jun-07 12:28N 41°11' W 008°42'0 0.0
2018-Jun-07 11:58N 41°11' W 008°42'0 0.0
2018-Jun-07 11:28N 41°11' W 008°42'0 0.0
2018-Jun-07 10:58N 41°11' W 008°42'0 0.0
2018-Jun-07 10:28N 41°11' W 008°42'0 0.0
2018-Jun-07 09:58N 41°11' W 008°42'0 0.0
2018-Jun-07 09:28N 41°11' W 008°42'0 0.0
2018-Jun-07 08:58N 41°11' W 008°42'0 0.0
2018-Jun-07 08:28N 41°11' W 008°42'0 0.0
2018-Jun-07 07:58N 41°11' W 008°42'0 0.0
2018-Jun-07 07:28N 41°11' W 008°42'0 0.0
2018-Jun-07 06:58N 41°11' W 008°42'0 0.0
2018-Jun-07 06:28N 41°11' W 008°42'0 0.0
2018-Jun-07 05:58N 41°11' W 008°42'0 0.0
2018-Jun-07 05:28N 41°11' W 008°42'0 0.0
2018-Jun-07 04:58N 41°11' W 008°42'0 0.0
2018-Jun-07 04:28N 41°11' W 008°42'0 0.0
2018-Jun-07 03:58N 41°11' W 008°42'0 0.0
2018-Jun-07 03:28N 41°11' W 008°42'0 0.0
2018-Jun-07 02:58N 41°11' W 008°42'0 0.0
2018-Jun-07 02:25N 41°11' W 008°42'0 0.0
2018-Jun-07 01:58N 41°11' W 008°42'0 0.0
2018-Jun-07 01:28N 41°11' W 008°42'0 0.0
2018-Jun-07 00:58N 41°11' W 008°42'0 0.0
2018-Jun-07 00:28N 41°11' W 008°42'0 0.0
2018-Jun-06 23:58N 41°11' W 008°42'0 0.0
2018-Jun-06 23:28N 41°11' W 008°42'0 0.0
2018-Jun-06 22:58N 41°11' W 008°42'0 0.0
2018-Jun-06 22:28N 41°11' W 008°42'0 0.0
2018-Jun-06 21:58N 41°11' W 008°42'0 0.0
2018-Jun-06 21:28N 41°11' W 008°42'0 0.0
2018-Jun-06 20:58N 41°11' W 008°42'0 0.0
2018-Jun-06 20:28N 41°11' W 008°42'0 0.0
2018-Jun-06 19:55N 41°11' W 008°42'0 0.0
2018-Jun-06 19:28N 41°11' W 008°42'0 0.0
2018-Jun-06 18:58N 41°11' W 008°42'0 0.0
2018-Jun-06 18:28N 41°11' W 008°42'0 0.0
2018-Jun-06 17:58N 41°11' W 008°42'0 0.0
2018-Jun-06 17:28N 41°11' W 008°42'0 0.0
2018-Jun-06 16:58N 41°11' W 008°42'0 0.0
2018-Jun-06 16:28N 41°11' W 008°42'0 0.0
2018-Jun-06 15:58N 41°11' W 008°42'0 0.0
2018-Jun-06 15:28N 41°11' W 008°42'0 0.0
2018-Jun-06 14:58N 41°11' W 008°42'0 0.0
2018-Jun-06 14:28N 41°11' W 008°42'0 0.0
2018-Jun-06 13:58N 41°11' W 008°42'0 0.0
2018-Jun-06 13:28N 41°11' W 008°42'0 0.0
2018-Jun-06 12:58N 41°11' W 008°42'0 0.0
2018-Jun-06 12:28N 41°11' W 008°42'0 0.0
2018-Jun-06 11:58N 41°11' W 008°42'0 0.0
2018-Jun-06 11:28N 41°11' W 008°42'0 0.0
2018-Jun-06 10:58N 41°11' W 008°42'0 0.0
2018-Jun-06 10:28N 41°11' W 008°42'0 0.0
2018-Jun-06 09:58N 41°11' W 008°42'0 0.0
2018-Jun-06 09:28N 41°11' W 008°42'0 0.0
2018-Jun-06 08:55N 41°11' W 008°42'0 0.0
2018-Jun-06 08:28N 41°11' W 008°42'0 0.0
2018-Jun-06 07:58N 41°11' W 008°42'0 0.0
2018-Jun-06 07:28N 41°11' W 008°42'0 0.0
2018-Jun-06 06:58N 41°11' W 008°42'0 0.0
2018-Jun-06 06:28N 41°11' W 008°42'0 0.0
2018-Jun-06 06:00N 41°11' W 008°42'0 0.3
2018-Jun-06 05:30N 41°11' W 008°42'2 4.8
2018-Jun-06 05:01N 41°09' W 008°44'3 5.2
2018-Jun-06 04:29N 41°10' W 008°47'0 0.1
2018-Jun-06 03:59N 41°10' W 008°47'0 0.0
2018-Jun-06 03:20N 41°10' W 008°47'0 0.1
2018-Jun-06 02:59N 41°10' W 008°47'1 2.1
2018-Jun-06 02:30N 41°11' W 008°47'467 9.1
2018-Jun-03 22:58N 48°43' W 005°57'2010.6
2018-Jun-03 21:07N 48°57' W 005°38'110.4
2018-Jun-03 21:00N 48°58' W 005°36'8110.5
2018-Jun-03 13:17N 49°42' W 003°51'311.3
2018-Jun-03 13:00N 49°43' W 003°47'611.1
2018-Jun-03 12:30N 49°46' W 003°39'610.9
2018-Jun-03 11:58N 49°49' W 003°31'510.5
2018-Jun-03 11:30N 49°51' W 003°25'510.2
2018-Jun-03 11:00N 49°53' W 003°17'5 9.9
2018-Jun-03 10:30N 49°55' W 003°10'5 9.6
2018-Jun-03 10:00N 49°57' W 003°04'5 9.6
2018-Jun-03 09:30N 49°59' W 002°57'5 9.7
2018-Jun-03 09:00N 50°00' W 002°50'5 9.8
2018-Jun-03 08:30N 50°02' W 002°42'510.2
2018-Jun-03 08:00N 50°03' W 002°35'610.7
2018-Jun-03 07:27N 50°05' W 002°26'611.3
2018-Jun-03 06:57N 50°07' W 002°18'612.0
2018-Jun-03 06:28N 50°08' W 002°09'612.7
2018-Jun-03 06:00N 50°10' W 002°00'713.3
2018-Jun-03 05:30N 50°12' W 001°50'713.7
2018-Jun-03 05:01N 50°13' W 001°40'713.7
2018-Jun-03 04:30N 50°15' W 001°29'713.6
2018-Jun-03 04:00N 50°16' W 001°19'713.4
2018-Jun-03 03:30N 50°18' W 001°09'613.0
2018-Jun-03 03:00N 50°19' W 000°59'611.9
2018-Jun-03 02:30N 50°21' W 000°50'511.0
2018-Jun-03 02:00N 50°24' W 000°42'  

Dump ship's entire track history